Time;durP1;ratioP1;P1;durP2;ratioP2;P2;SDS_P1;SDS_P2;PMS_P1;PMS_P2;Temp;Humidity;BMP_temperature;BMP_pressure;BME280_temperature;BME280_humidity;BME280_pressure;Samples;Min_cycle;Max_cycle;Signal;HPM_P1;HPM_P2
2023/10/24 00:00:09;;;;;;;0.40;0.17;;;11.60;99.90;;;;;;5035755;28;20025;-76
2023/10/24 00:02:34;;;;;;;2.30;0.45;;;11.60;99.90;;;;;;5035298;28;20118;-77
2023/10/24 00:05:00;;;;;;;1.80;0.52;;;11.60;99.90;;;;;;5035073;28;20080;-76
2023/10/24 00:07:25;;;;;;;1.67;0.63;;;11.60;99.90;;;;;;5035678;28;20111;-76
2023/10/24 00:09:51;;;;;;;1.40;0.30;;;11.70;99.90;;;;;;5035067;28;20021;-77
2023/10/24 00:12:17;;;;;;;4.50;1.77;;;11.60;99.90;;;;;;5034880;28;20076;-76
2023/10/24 00:14:42;;;;;;;1.27;0.40;;;11.60;99.90;;;;;;5034951;28;20025;-76
2023/10/24 00:17:08;;;;;;;1.83;0.40;;;11.70;99.90;;;;;;5034837;28;20080;-77
2023/10/24 00:19:33;;;;;;;0.85;0.30;;;11.60;99.90;;;;;;5034925;28;20013;-76
2023/10/24 00:21:59;;;;;;;1.38;0.60;;;11.70;99.90;;;;;;5033551;28;20493;-76
2023/10/24 00:24:26;;;;;;;1.55;0.52;;;11.70;99.90;;;;;;5034838;28;20033;-76
2023/10/24 00:26:51;;;;;;;1.30;0.43;;;11.70;99.90;;;;;;5034623;28;20072;-77
2023/10/24 00:29:17;;;;;;;1.20;0.57;;;11.70;99.90;;;;;;5034563;28;20112;-77
2023/10/24 00:31:42;;;;;;;2.28;0.75;;;11.70;99.90;;;;;;5034660;28;20021;-76
2023/10/24 00:34:12;;;;;;;2.70;1.60;;;11.80;99.90;;;;;;5035232;28;20365;-75
2023/10/24 00:36:39;;;;;;;2.17;1.70;;;11.80;99.90;;;;;;5033222;28;20025;-77
2023/10/24 00:39:05;;;;;;;3.15;1.55;;;11.80;99.90;;;;;;5033774;28;20076;-76
2023/10/24 00:41:31;;;;;;;4.25;2.05;;;11.80;99.90;;;;;;5033180;28;20488;-76
2023/10/24 00:43:56;;;;;;;3.30;2.08;;;11.70;99.90;;;;;;5034646;28;20033;-76
2023/10/24 00:46:22;;;;;;;5.22;3.35;;;11.80;99.90;;;;;;5033513;28;20079;-76
2023/10/24 00:48:48;;;;;;;4.00;2.17;;;11.80;99.90;;;;;;5033021;28;20039;-76
2023/10/24 00:51:13;;;;;;;4.50;2.85;;;11.80;99.90;;;;;;5034063;28;20029;-77
2023/10/24 00:53:40;;;;;;;4.45;2.88;;;11.80;99.90;;;;;;5034252;28;20060;-75
2023/10/24 00:56:06;;;;;;;5.55;4.10;;;12.60;99.90;;;;;;5034120;28;20022;-77
2023/10/24 00:58:35;;;;;;;5.35;3.90;;;11.90;99.90;;;;;;5034037;28;20025;-76
2023/10/24 01:01:01;;;;;;;6.20;3.35;;;11.90;99.90;;;;;;5034061;28;20021;-76
2023/10/24 01:03:27;;;;;;;6.47;4.10;;;11.90;99.90;;;;;;5033983;28;20097;-76
2023/10/24 01:05:54;;;;;;;6.82;4.10;;;11.90;99.90;;;;;;5033641;28;20485;-76
2023/10/24 01:08:19;;;;;;;9.55;4.82;;;11.90;99.90;;;;;;5033786;28;20018;-76
2023/10/24 01:10:45;;;;;;;7.50;4.70;;;11.90;99.90;;;;;;5033790;28;20167;-77
2023/10/24 01:13:11;;;;;;;7.30;4.60;;;11.90;99.90;;;;;;5033282;28;20028;-77
2023/10/24 01:15:37;;;;;;;10.18;4.78;;;11.90;99.90;;;;;;5032411;28;20018;-77
2023/10/24 01:18:03;;;;;;;9.00;5.32;;;11.90;99.90;;;;;;5034242;28;20484;-76
2023/10/24 01:20:29;;;;;;;10.77;5.50;;;11.90;99.90;;;;;;5033600;28;20388;-76
2023/10/24 01:22:54;;;;;;;7.78;5.30;;;12.40;99.90;;;;;;5033553;28;20013;-76
2023/10/24 01:25:20;;;;;;;10.80;6.80;;;11.90;99.90;;;;;;5034042;28;20029;-76
2023/10/24 01:27:53;;;;;;;10.07;5.40;;;11.90;99.90;;;;;;5033999;28;20036;-76
2023/10/24 01:30:19;;;;;;;9.05;5.90;;;11.90;99.90;;;;;;5033499;28;20025;-76
2023/10/24 01:32:45;;;;;;;12.85;7.07;;;;;;;;;;5032163;28;20028;-76
2023/10/24 01:35:12;;;;;;;9.80;6.40;;;12.00;99.90;;;;;;5033326;28;20473;-76
2023/10/24 01:37:38;;;;;;;11.48;6.05;;;12.00;99.90;;;;;;5033369;28;20384;-77
2023/10/24 01:40:04;;;;;;;12.25;6.60;;;12.00;99.90;;;;;;5033796;28;20021;-76
2023/10/24 01:42:30;;;;;;;9.23;6.00;;;12.00;99.90;;;;;;5033289;28;20071;-76
2023/10/24 01:44:56;;;;;;;13.18;6.78;;;;;;;;;;5033193;28;20029;-76
2023/10/24 01:47:21;;;;;;;12.85;6.28;;;12.00;99.90;;;;;;5033885;28;20026;-76
2023/10/24 01:49:47;;;;;;;9.80;6.28;;;11.90;99.90;;;;;;5033384;28;20394;-76
2023/10/24 01:52:13;;;;;;;8.82;6.20;;;12.00;99.90;;;;;;5031970;28;20188;-77
2023/10/24 01:54:38;;;;;;;15.52;5.85;;;12.00;99.90;;;;;;5033206;28;20393;-76
2023/10/24 01:57:04;;;;;;;16.77;6.13;;;12.00;99.90;;;;;;5033226;28;20018;-76
2023/10/24 01:59:30;;;;;;;11.23;6.03;;;12.30;99.90;;;;;;5031840;28;20026;-77
2023/10/24 02:01:55;;;;;;;10.98;6.15;;;11.90;99.90;;;;;;5033108;28;20025;-76
2023/10/24 02:04:21;;;;;;;10.93;5.63;;;12.00;99.90;;;;;;5031771;28;20029;-76
2023/10/24 02:06:47;;;;;;;12.75;5.00;;;11.90;99.90;;;;;;5032916;28;20029;-75
2023/10/24 02:09:13;;;;;;;9.18;4.72;;;12.00;99.90;;;;;;5033553;28;20032;-76
2023/10/24 02:11:38;;;;;;;11.77;5.93;;;11.90;99.90;;;;;;5032896;28;20018;-77
2023/10/24 02:14:04;;;;;;;9.60;5.35;;;11.90;99.90;;;;;;5033062;28;20021;-76
2023/10/24 02:16:30;;;;;;;11.82;5.15;;;12.00;99.90;;;;;;5032964;28;20025;-76
2023/10/24 02:18:55;;;;;;;7.80;4.57;;;12.00;99.90;;;;;;5033094;28;20489;-77
2023/10/24 02:21:21;;;;;;;13.50;5.15;;;11.90;99.90;;;;;;5031717;28;20017;-77
2023/10/24 02:23:46;;;;;;;9.63;5.65;;;11.90;99.90;;;;;;5033616;28;20026;-76
2023/10/24 02:26:15;;;;;;;11.25;5.85;;;11.90;99.90;;;;;;5033107;28;20033;-77
2023/10/24 02:28:41;;;;;;;;;;;11.90;99.90;;;;;;5033367;28;20156;-76
2023/10/24 02:31:07;;;;;;;12.30;4.78;;;11.90;99.90;;;;;;5032833;28;19916;-77
2023/10/24 02:33:33;;;;;;;8.23;4.47;;;11.90;99.90;;;;;;5031637;28;20017;-76
2023/10/24 02:36:11;;;;;;;11.45;5.38;;;11.90;99.90;;;;;;5032880;28;20542;-77
2023/10/24 02:38:37;;;;;;;;;;;11.80;99.90;;;;;;5033259;28;20029;-77
2023/10/24 02:41:05;;;;;;;8.10;4.90;;;11.80;99.90;;;;;;5031554;28;19927;-77
2023/10/24 02:43:32;;;;;;;13.75;6.15;;;11.90;99.90;;;;;;5032857;28;20083;-76
2023/10/24 02:46:03;;;;;;;6.10;4.18;;;11.90;99.90;;;;;;5032694;28;20021;-76
2023/10/24 02:48:29;;;;;;;7.40;4.38;;;11.80;99.90;;;;;;5031727;28;20056;-77
2023/10/24 02:50:55;;;;;;;7.97;3.88;;;11.80;99.90;;;;;;5033044;28;20069;-77
2023/10/24 02:53:21;;;;;;;7.93;4.07;;;11.80;99.90;;;;;;5033788;28;20561;-75
2023/10/24 02:55:48;;;;;;;8.90;4.30;;;11.80;99.90;;;;;;5031281;28;20052;-75
2023/10/24 02:58:14;;;;;;;10.77;4.60;;;11.80;99.90;;;;;;5033058;28;20060;-76
2023/10/24 03:00:39;;;;;;;9.05;4.32;;;11.70;99.90;;;;;;5031349;28;20026;-76
2023/10/24 03:03:05;;;;;;;10.40;4.25;;;11.80;99.90;;;;;;5032655;28;20025;-75
2023/10/24 03:05:31;;;;;;;5.95;4.03;;;11.70;99.90;;;;;;5033254;28;20025;-77
2023/10/24 03:07:57;;;;;;;6.50;3.80;;;11.70;99.90;;;;;;5033757;28;20025;-76
2023/10/24 03:10:25;;;;;;;8.27;3.35;;;11.80;99.90;;;;;;5035886;28;20049;-76
2023/10/24 03:12:51;;;;;;;6.57;4.40;;;12.40;99.90;;;;;;5035101;28;20474;-75
2023/10/24 03:15:17;;;;;;;7.18;3.22;;;11.70;99.90;;;;;;5034603;28;20022;-76
2023/10/24 03:17:42;;;;;;;7.68;3.17;;;11.80;99.90;;;;;;5036097;28;20029;-76
2023/10/24 03:20:09;;;;;;;6.90;3.35;;;11.70;99.90;;;;;;5036070;28;20021;-76
2023/10/24 03:22:35;;;;;;;8.07;3.38;;;11.70;99.90;;;;;;5034722;28;20025;-76
2023/10/24 03:25:01;;;;;;;7.07;3.83;;;11.70;99.90;;;;;;5035781;28;20032;-76
2023/10/24 03:27:27;;;;;;;6.13;3.40;;;11.70;99.90;;;;;;5036524;28;20055;-76
2023/10/24 03:29:52;;;;;;;6.03;2.92;;;11.70;99.90;;;;;;5036050;28;20484;-76
2023/10/24 03:32:18;;;;;;;6.07;2.95;;;11.70;99.90;;;;;;5035822;28;20029;-76
2023/10/24 03:34:43;;;;;;;5.68;3.10;;;11.60;99.90;;;;;;5035806;28;20030;-76
2023/10/24 03:37:09;;;;;;;6.47;3.13;;;11.90;99.90;;;;;;5035619;28;20025;-76
2023/10/24 03:39:34;;;;;;;7.45;3.20;;;11.60;99.90;;;;;;5035853;28;20018;-76
2023/10/24 03:42:00;;;;;;;5.63;3.42;;;11.60;99.90;;;;;;5035533;28;20132;-76
2023/10/24 03:44:25;;;;;;;5.95;4.20;;;11.60;99.90;;;;;;5035573;28;20076;-76
2023/10/24 03:46:51;;;;;;;6.72;4.00;;;11.50;99.90;;;;;;5034119;28;20036;-76
2023/10/24 03:49:17;;;;;;;6.97;4.10;;;11.50;99.90;;;;;;5035637;28;20021;-76
2023/10/24 03:51:43;;;;;;;6.35;3.67;;;11.50;99.90;;;;;;5035553;28;20139;-76
2023/10/24 03:54:08;;;;;;;7.97;4.32;;;11.50;99.90;;;;;;5034203;28;20017;-75
2023/10/24 03:56:37;;;;;;;7.22;4.13;;;11.50;99.90;;;;;;5035345;28;20393;-76
2023/10/24 03:59:03;;;;;;;8.73;5.18;;;11.50;99.90;;;;;;5035306;28;20174;-76
2023/10/24 04:01:28;;;;;;;7.63;4.78;;;11.50;99.90;;;;;;5035914;28;20067;-75
2023/10/24 04:03:54;;;;;;;11.25;4.97;;;12.20;99.90;;;;;;5035286;28;20025;-76
2023/10/24 04:06:19;;;;;;;10.88;6.13;;;11.40;99.90;;;;;;5033702;28;20037;-75
2023/10/24 04:08:45;;;;;;;12.40;5.40;;;11.40;99.90;;;;;;5033908;28;20534;-76
2023/10/24 04:11:15;;;;;;;11.50;5.78;;;11.40;99.90;;;;;;5035522;28;20033;-76
2023/10/24 04:13:42;;;;;;;12.20;6.00;;;11.40;99.90;;;;;;5033857;28;20087;-75
2023/10/24 04:16:07;;;;;;;13.75;6.25;;;11.40;99.90;;;;;;5034950;28;20029;-76
2023/10/24 04:18:33;;;;;;;12.85;6.78;;;11.40;99.90;;;;;;5035467;28;20104;-76
2023/10/24 04:20:58;;;;;;;12.23;6.32;;;11.40;99.90;;;;;;5032569;28;20075;-75
2023/10/24 04:23:24;;;;;;;10.32;6.13;;;11.40;99.90;;;;;;5034854;28;20026;-75
2023/10/24 04:25:49;;;;;;;12.23;6.72;;;11.40;99.90;;;;;;5034613;28;20021;-76
2023/10/24 04:28:15;;;;;;;14.57;6.60;;;11.30;99.90;;;;;;5033427;28;20037;-76
2023/10/24 04:30:41;;;;;;;13.15;7.05;;;10.40;99.90;;;;;;5033376;28;20036;-75
2023/10/24 04:33:10;;;;;;;11.68;7.68;;;11.40;99.90;;;;;;5034678;28;20473;-76
2023/10/24 04:35:43;;;;;;;13.05;6.60;;;11.40;99.90;;;;;;5033264;28;20026;-76
2023/10/24 04:38:10;;;;;;;13.02;6.43;;;11.40;99.90;;;;;;5034865;28;20026;-76
2023/10/24 04:40:37;;;;;;;11.70;6.60;;;11.40;99.90;;;;;;5034502;28;20071;-76
2023/10/24 04:43:03;;;;;;;12.00;6.28;;;11.40;99.90;;;;;;5033382;28;20071;-76
2023/10/24 04:45:29;;;;;;;12.68;7.10;;;11.40;99.90;;;;;;5034427;28;20093;-76
2023/10/24 04:48:02;;;;;;;14.02;6.85;;;11.40;99.90;;;;;;5034877;28;20031;-76
2023/10/24 04:50:28;;;;;;;15.18;6.47;;;11.30;99.90;;;;;;5034745;28;20017;-76
2023/10/24 04:52:54;;;;;;;13.07;6.68;;;11.40;99.90;;;;;;5034461;28;20113;-76
2023/10/24 04:55:21;;;;;;;14.20;6.82;;;11.40;99.90;;;;;;5034108;28;20024;-76
2023/10/24 04:57:47;;;;;;;10.63;5.47;;;11.40;99.90;;;;;;5034352;28;20022;-76
2023/10/24 05:00:13;;;;;;;14.68;6.03;;;11.30;99.90;;;;;;5033327;28;20079;-74
2023/10/24 05:02:40;;;;;;;10.80;7.07;;;11.30;99.90;;;;;;5034190;28;20030;-76
2023/10/24 05:05:06;;;;;;;10.82;6.43;;;11.30;99.90;;;;;;5033989;28;20022;-76
2023/10/24 05:07:32;;;;;;;10.80;6.13;;;11.30;99.90;;;;;;5032606;28;20061;-75
2023/10/24 05:09:58;;;;;;;12.63;6.97;;;11.30;99.90;;;;;;5034682;28;20057;-75
2023/10/24 05:12:23;;;;;;;12.85;6.65;;;11.30;99.90;;;;;;5034003;28;20359;-76
2023/10/24 05:14:49;;;;;;;11.63;7.10;;;11.30;99.90;;;;;;5033857;28;20030;-76
2023/10/24 05:17:14;;;;;;;14.07;7.05;;;11.30;99.90;;;;;;5032415;28;20018;-76
2023/10/24 05:19:41;;;;;;;13.25;6.85;;;11.20;99.90;;;;;;5033731;28;20512;-76
2023/10/24 05:22:10;;;;;;;11.82;6.47;;;11.20;99.90;;;;;;5033742;28;20022;-76
2023/10/24 05:24:37;;;;;;;12.30;6.63;;;11.20;99.90;;;;;;5033717;28;20030;-76
2023/10/24 05:27:06;;;;;;;13.27;6.90;;;11.20;99.90;;;;;;5033673;28;20493;-76
2023/10/24 05:29:33;;;;;;;13.30;6.93;;;11.20;99.90;;;;;;5033611;28;20079;-76
2023/10/24 05:31:59;;;;;;;16.65;7.22;;;11.20;99.90;;;;;;5033419;28;20029;-76
2023/10/24 05:34:28;;;;;;;12.52;6.97;;;11.20;99.90;;;;;;5033710;28;20028;-76
2023/10/24 05:36:54;;;;;;;9.52;5.82;;;11.20;99.90;;;;;;5033949;28;20133;-77
2023/10/24 05:39:20;;;;;;;11.80;6.18;;;11.20;99.90;;;;;;5032235;28;20485;-76
2023/10/24 05:41:50;;;;;;;10.15;6.00;;;11.20;99.90;;;;;;5032276;28;20032;-76
2023/10/24 05:44:16;;;;;;;11.63;6.55;;;11.20;99.90;;;;;;5032219;28;20464;-76
2023/10/24 05:46:41;;;;;;;11.23;6.63;;;11.20;99.90;;;;;;5033501;28;20052;-76
2023/10/24 05:49:07;;;;;;;11.48;5.60;;;11.20;99.90;;;;;;5034052;28;20021;-76
2023/10/24 05:51:33;;;;;;;11.30;6.57;;;11.20;99.90;;;;;;5032418;28;20021;-75
2023/10/24 05:53:59;;;;;;;12.45;6.13;;;11.20;99.90;;;;;;5033736;28;20045;-76
2023/10/24 05:56:24;;;;;;;10.27;6.05;;;11.20;99.90;;;;;;5033725;28;20451;-77
2023/10/24 05:58:51;;;;;;;11.38;6.25;;;11.20;99.90;;;;;;5033931;28;20080;-76
2023/10/24 06:01:17;;;;;;;10.90;6.47;;;11.20;99.90;;;;;;5032285;28;20408;-76
2023/10/24 06:03:42;;;;;;;12.88;6.82;;;11.10;99.90;;;;;;5032162;28;20038;-76
2023/10/24 06:06:08;;;;;;;11.32;6.35;;;11.20;99.90;;;;;;5033289;28;20026;-75
2023/10/24 06:08:34;;;;;;;11.68;5.90;;;11.20;99.90;;;;;;5033891;28;20029;-76
2023/10/24 06:11:02;;;;;;;10.63;5.45;;;11.20;99.90;;;;;;5033180;28;20099;-76
2023/10/24 06:13:28;;;;;;;8.75;6.00;;;11.20;99.90;;;;;;5033265;28;20025;-76
2023/10/24 06:15:54;;;;;;;9.45;5.13;;;11.20;99.90;;;;;;5033247;28;20452;-75
2023/10/24 06:18:20;;;;;;;10.00;5.13;;;11.10;99.90;;;;;;5031970;28;20030;-76
2023/10/24 06:20:47;;;;;;;10.63;5.90;;;11.10;99.90;;;;;;5031997;28;20026;-76
2023/10/24 06:23:13;;;;;;;11.25;5.47;;;11.60;99.90;;;;;;5033225;28;20026;-75
2023/10/24 06:25:39;;;;;;;8.30;5.25;;;11.10;99.90;;;;;;5033126;28;20555;-76
2023/10/24 06:28:06;;;;;;;9.23;5.38;;;11.20;99.90;;;;;;5033136;28;20034;-76
2023/10/24 06:30:33;;;;;;;8.27;5.13;;;11.10;99.90;;;;;;5033235;28;20381;-75
2023/10/24 06:32:58;;;;;;;9.05;5.05;;;11.10;99.90;;;;;;5033488;28;20018;-76
2023/10/24 06:35:24;;;;;;;8.45;4.93;;;11.10;99.90;;;;;;5031866;28;20079;-76
2023/10/24 06:37:50;;;;;;;9.52;5.32;;;11.10;99.90;;;;;;5033072;28;20017;-76
2023/10/24 06:40:16;;;;;;;9.82;4.70;;;11.00;99.90;;;;;;5033221;28;20108;-76
2023/10/24 06:42:41;;;;;;;11.38;5.10;;;11.10;99.90;;;;;;5031678;28;20449;-75
2023/10/24 06:45:07;;;;;;;8.18;4.90;;;11.10;99.90;;;;;;5035948;28;20096;-76
2023/10/24 06:47:33;;;;;;;9.55;4.95;;;11.00;99.90;;;;;;5036733;28;20028;-75
2023/10/24 06:49:59;;;;;;;9.93;4.97;;;11.00;99.90;;;;;;5035522;28;20443;-75
2023/10/24 06:52:24;;;;;;;9.40;4.47;;;11.10;99.90;;;;;;5037205;28;20108;-75
2023/10/24 06:54:50;;;;;;;8.65;4.45;;;11.00;99.90;;;;;;5036690;28;20026;-75
2023/10/24 06:57:18;;;;;;;9.38;4.93;;;11.00;99.90;;;;;;5036456;28;20176;-75
2023/10/24 06:59:43;;;;;;;9.70;4.55;;;11.00;99.90;;;;;;5036615;28;20392;-75
2023/10/24 07:02:09;;;;;;;9.02;4.72;;;11.10;99.90;;;;;;5036597;28;20021;-76
2023/10/24 07:04:37;;;;;;;7.68;4.05;;;11.00;99.90;;;;;;5035238;28;20021;-76
2023/10/24 07:07:03;;;;;;;8.93;4.40;;;11.00;99.90;;;;;;5036584;28;20124;-76
2023/10/24 07:09:28;;;;;;;9.93;4.85;;;11.00;99.90;;;;;;5036481;28;20499;-76
2023/10/24 07:11:54;;;;;;;8.90;4.68;;;11.00;99.90;;;;;;5036525;28;20456;-76
2023/10/24 07:14:20;;;;;;;17.67;5.15;;;11.00;99.90;;;;;;5036313;28;20028;-76
2023/10/24 07:16:46;;;;;;;8.98;5.30;;;11.00;99.90;;;;;;5036207;28;20072;-75
2023/10/24 07:19:12;;;;;;;10.20;5.05;;;11.00;99.90;;;;;;5034956;28;20013;-75
2023/10/24 07:21:38;;;;;;;11.25;5.00;;;11.10;99.90;;;;;;5036090;28;20456;-75
2023/10/24 07:24:03;;;;;;;9.85;5.22;;;11.10;99.90;;;;;;5036164;28;20025;-75
2023/10/24 07:26:30;;;;;;;10.57;6.30;;;11.10;99.90;;;;;;5036266;28;20025;-76
2023/10/24 07:28:56;;;;;;;11.15;5.15;;;11.10;99.90;;;;;;5035966;28;20030;-76
2023/10/24 07:31:22;;;;;;;13.32;5.78;;;;;;;;;;5035933;28;20040;-76
2023/10/24 07:33:48;;;;;;;9.82;5.68;;;11.20;99.90;;;;;;5036172;28;20013;-76
2023/10/24 07:36:15;;;;;;;11.93;5.78;;;11.20;99.90;;;;;;5034661;28;20079;-76
2023/10/24 07:38:40;;;;;;;12.48;6.55;;;11.20;99.90;;;;;;5034622;28;20029;-75
2023/10/24 07:41:06;;;;;;;11.70;5.70;;;11.20;99.90;;;;;;5035929;28;20029;-75
2023/10/24 07:43:32;;;;;;;12.93;5.80;;;11.20;99.90;;;;;;5034562;28;20021;-76
2023/10/24 07:45:57;;;;;;;15.00;6.35;;;11.20;99.90;;;;;;5034432;28;20379;-76
2023/10/24 07:48:26;;;;;;;13.95;6.22;;;11.20;99.90;;;;;;5035761;28;20479;-76
2023/10/24 07:50:52;;;;;;;;;;;11.30;99.90;;;;;;5035955;28;20040;-76
2023/10/24 07:53:19;;;;;;;14.85;6.35;;;11.30;99.90;;;;;;5034251;28;19909;-75
2023/10/24 07:55:44;;;;;;;9.77;5.65;;;11.30;99.90;;;;;;5034048;28;20079;-75
2023/10/24 07:58:10;;;;;;;11.38;5.95;;;11.40;99.90;;;;;;5035300;28;20037;-75
2023/10/24 08:00:35;;;;;;;11.35;5.85;;;11.50;99.90;;;;;;5035872;28;20029;-75
2023/10/24 08:03:01;;;;;;;14.57;6.80;;;11.60;99.90;;;;;;5035372;28;20497;-75
2023/10/24 08:05:26;;;;;;;10.63;6.18;;;11.60;99.90;;;;;;5035139;28;20056;-75
2023/10/24 08:07:52;;;;;;;11.73;6.20;;;11.60;99.90;;;;;;5035293;28;20026;-76
2023/10/24 08:10:20;;;;;;;12.38;6.70;;;11.60;99.90;;;;;;5035265;28;20013;-75
2023/10/24 08:12:48;;;;;;;11.65;6.03;;;11.60;99.90;;;;;;5034779;28;20036;-75
2023/10/24 08:15:14;;;;;;;14.18;6.50;;;11.60;99.90;;;;;;5035590;28;20112;-76
2023/10/24 08:17:39;;;;;;;14.60;6.75;;;11.60;99.90;;;;;;5034910;28;20107;-75
2023/10/24 08:20:05;;;;;;;12.05;6.28;;;;;;;;;;5034987;28;20013;-75
2023/10/24 08:22:31;;;;;;;15.15;6.80;;;11.70;99.90;;;;;;5034878;28;20064;-76
2023/10/24 08:24:58;;;;;;;11.88;6.50;;;11.80;99.90;;;;;;5034896;28;20021;-76
2023/10/24 08:27:24;;;;;;;10.90;5.88;;;12.00;99.90;;;;;;5034778;28;20541;-75
2023/10/24 08:29:49;;;;;;;11.18;6.38;;;11.80;99.90;;;;;;5033330;28;20052;-75
2023/10/24 08:32:15;;;;;;;13.40;6.72;;;11.70;99.90;;;;;;5034659;28;20539;-76
2023/10/24 08:34:40;;;;;;;12.15;6.60;;;11.80;99.90;;;;;;5033400;28;20017;-76
2023/10/24 08:37:06;;;;;;;13.68;7.32;;;11.80;99.90;;;;;;5034506;28;20600;-76
2023/10/24 08:39:32;;;;;;;11.48;6.45;;;11.90;99.90;;;;;;5033436;28;20026;-76
2023/10/24 08:41:57;;;;;;;16.83;6.78;;;12.00;99.90;;;;;;5033382;28;20113;-76
2023/10/24 08:44:24;;;;;;;12.32;6.75;;;12.00;99.90;;;;;;5034546;28;20485;-76
2023/10/24 08:46:50;;;;;;;12.32;6.32;;;12.10;99.90;;;;;;5033058;28;20048;-76
2023/10/24 08:49:19;;;;;;;14.93;7.68;;;12.10;99.90;;;;;;5034417;28;20029;-76
2023/10/24 08:51:45;;;;;;;;;;;12.20;99.90;;;;;;5033545;28;20036;-75
2023/10/24 08:54:14;;;;;;;9.77;6.07;;;12.50;99.90;;;;;;5034748;28;19911;-76
2023/10/24 08:56:41;;;;;;;12.00;5.18;;;12.20;99.90;;;;;;5034202;28;20017;-75
2023/10/24 08:59:12;;;;;;;11.60;5.78;;;12.20;99.90;;;;;;5034172;28;20036;-76
2023/10/24 09:01:40;;;;;;;11.68;6.40;;;12.20;99.90;;;;;;5034038;28;20021;-75
2023/10/24 09:04:06;;;;;;;10.23;5.60;;;12.20;99.90;;;;;;5033028;28;20049;-75
2023/10/24 09:06:36;;;;;;;9.93;6.00;;;12.20;99.90;;;;;;5033352;28;20076;-76
2023/10/24 09:09:02;;;;;;;10.02;6.07;;;12.20;99.90;;;;;;5034035;28;20108;-75
2023/10/24 09:11:55;;;;;;;11.63;5.65;;;12.20;99.90;;;;;;5032692;28;20104;-76
2023/10/24 09:14:21;;;;;;;10.07;5.18;;;12.30;99.90;;;;;;5032791;28;20018;-76
2023/10/24 09:16:54;;;;;;;10.85;5.32;;;12.40;99.90;;;;;;5033797;28;20389;-76
2023/10/24 09:19:23;;;;;;;8.57;5.47;;;12.50;99.90;;;;;;5032536;28;20029;-76
2023/10/24 09:21:50;;;;;;;8.23;5.22;;;12.60;99.90;;;;;;5032281;28;20488;-75
2023/10/24 09:24:17;;;;;;;9.88;4.90;;;12.70;99.90;;;;;;5032446;28;20087;-76
2023/10/24 09:26:50;;;;;;;9.93;4.70;;;12.70;99.90;;;;;;5033570;28;20018;-76
2023/10/24 09:29:17;;;;;;;8.25;4.63;;;13.00;99.90;;;;;;5033167;28;20496;-76
2023/10/24 09:31:47;;;;;;;7.68;4.43;;;13.00;99.90;;;;;;5032350;28;20025;-76
2023/10/24 09:34:16;;;;;;;7.68;4.10;;;13.10;99.90;;;;;;5032249;28;20117;-76
2023/10/24 09:36:43;;;;;;;7.60;4.20;;;13.10;99.90;;;;;;5033508;28;20017;-76
2023/10/24 09:39:12;;;;;;;5.50;3.45;;;13.10;99.90;;;;;;5033532;28;20028;-76
2023/10/24 09:41:40;;;;;;;7.97;3.65;;;13.20;99.90;;;;;;5033444;28;20022;-76
2023/10/24 09:44:07;;;;;;;7.60;3.45;;;13.30;99.90;;;;;;5033404;28;20037;-76
2023/10/24 09:46:35;;;;;;;8.40;4.07;;;13.40;99.90;;;;;;5033260;28;20018;-76
2023/10/24 09:49:01;;;;;;;5.88;3.22;;;13.40;99.90;;;;;;5032195;28;20032;-76
2023/10/24 09:51:27;;;;;;;5.35;3.05;;;13.50;99.90;;;;;;5033327;28;20033;-76
2023/10/24 09:53:53;;;;;;;9.38;3.28;;;13.50;99.90;;;;;;5033302;28;20097;-76
2023/10/24 09:56:20;;;;;;;5.40;2.63;;;13.50;99.90;;;;;;5031969;28;20515;-76
2023/10/24 09:58:46;;;;;;;5.05;2.60;;;13.50;99.90;;;;;;5032010;28;20025;-76
2023/10/24 10:01:12;;;;;;;5.00;3.05;;;13.50;99.90;;;;;;5033163;28;20477;-76
2023/10/24 10:03:38;;;;;;;4.85;2.72;;;14.10;99.90;;;;;;5033151;28;20053;-75
2023/10/24 10:06:08;;;;;;;3.50;2.00;;;13.50;99.90;;;;;;5033033;28;20362;-75
2023/10/24 10:08:36;;;;;;;7.20;2.60;;;13.50;99.90;;;;;;5033116;28;20125;-76
2023/10/24 10:11:04;;;;;;;5.57;3.65;;;13.50;99.90;;;;;;5033634;28;20087;-76
2023/10/24 10:13:33;;;;;;;5.53;3.35;;;13.40;99.90;;;;;;5033032;28;20543;-75
2023/10/24 10:16:20;;;;;;;8.10;3.70;;;13.40;99.90;;;;;;5031942;28;20064;-75
2023/10/24 10:19:15;;;;;;;7.40;3.25;;;13.30;99.90;;;;;;5033924;28;20104;-75
2023/10/24 10:21:56;;;;;;;9.10;3.83;;;13.30;99.90;;;;;;5037612;28;20127;-75
2023/10/24 10:24:46;;;;;;;5.38;3.22;;;13.30;99.90;;;;;;5037142;28;20087;-75
2023/10/24 10:27:28;;;;;;;7.68;4.13;;;13.30;99.90;;;;;;5035751;28;20033;-75
2023/10/24 10:29:59;;;;;;;6.97;3.80;;;13.30;99.90;;;;;;5035698;28;20120;-75
2023/10/24 10:32:46;;;;;;;7.68;3.30;;;13.20;99.90;;;;;;5035557;28;20025;-77
2023/10/24 10:35:12;;;;;;;9.20;4.70;;;13.20;99.90;;;;;;5035894;28;20017;-77
2023/10/24 10:37:38;;;;;;;7.63;4.53;;;12.00;99.90;;;;;;5035992;28;20018;-77
2023/10/24 10:40:16;;;;;;;13.30;5.55;;;13.20;99.90;;;;;;5037457;28;20045;-77
2023/10/24 10:42:49;;;;;;;10.52;5.55;;;13.20;99.90;;;;;;5037271;28;20073;-76
2023/10/24 10:45:44;;;;;;;8.27;5.20;;;13.20;99.90;;;;;;5036786;28;20025;-77
2023/10/24 10:48:10;;;;;;;9.45;5.30;;;13.20;99.90;;;;;;5036306;28;20044;-77
2023/10/24 10:50:37;;;;;;;9.80;5.35;;;13.10;99.90;;;;;;5035493;28;20032;-76
2023/10/24 10:53:13;;;;;;;10.02;5.72;;;13.20;99.90;;;;;;5036594;28;20144;-77
2023/10/24 10:56:02;;;;;;;10.38;5.45;;;13.10;99.90;;;;;;5036503;28;20226;-77
2023/10/24 10:58:54;;;;;;;9.15;5.63;;;13.00;99.90;;;;;;5035428;28;20094;-77
2023/10/24 11:01:51;;;;;;;8.75;4.80;;;13.00;99.90;;;;;;5035798;28;20042;-77
2023/10/24 11:04:17;;;;;;;9.73;4.60;;;13.00;99.90;;;;;;5036584;28;20068;-76
2023/10/24 11:06:53;;;;;;;8.80;5.03;;;13.00;99.90;;;;;;5036399;28;20448;-76
2023/10/24 11:09:36;;;;;;;6.90;4.95;;;13.20;99.90;;;;;;5038809;28;20029;-77
2023/10/24 11:12:25;;;;;;;8.88;4.40;;;12.90;99.90;;;;;;5038268;28;20030;-77
2023/10/24 11:15:16;;;;;;;7.63;4.43;;;12.90;99.90;;;;;;5038364;28;20027;-77
2023/10/24 11:17:43;;;;;;;7.82;4.78;;;12.80;99.90;;;;;;5037834;28;20021;-78
2023/10/24 11:20:09;;;;;;;7.40;4.45;;;12.80;99.90;;;;;;5036830;28;20017;-77
2023/10/24 11:22:36;;;;;;;8.82;5.05;;;12.80;99.90;;;;;;5037414;28;20434;-77
2023/10/24 11:25:12;;;;;;;6.60;4.13;;;12.80;99.90;;;;;;5036272;28;20397;-77
2023/10/24 11:27:38;;;;;;;7.90;4.40;;;12.70;99.90;;;;;;5034832;28;20034;-76
2023/10/24 11:30:05;;;;;;;10.02;4.47;;;12.70;99.90;;;;;;5037359;28;20060;-77
2023/10/24 11:32:31;;;;;;;10.15;4.38;;;12.70;99.90;;;;;;5036393;28;20033;-77
2023/10/24 11:34:56;;;;;;;8.32;4.65;;;12.70;99.90;;;;;;5034767;28;20104;-77
2023/10/24 11:37:22;;;;;;;5.38;4.22;;;12.70;99.90;;;;;;5035791;28;20022;-77
2023/10/24 11:39:48;;;;;;;5.60;3.88;;;12.80;99.90;;;;;;5035014;28;20481;-77
2023/10/24 11:42:14;;;;;;;5.72;3.50;;;12.90;99.90;;;;;;5034465;28;20029;-76
2023/10/24 11:44:39;;;;;;;5.75;3.67;;;12.80;99.90;;;;;;5035877;28;20489;-77
2023/10/24 11:47:07;;;;;;;7.80;3.67;;;12.90;99.90;;;;;;5035899;28;20021;-76
2023/10/24 11:49:33;;;;;;;6.43;3.10;;;12.90;99.90;;;;;;5036847;28;20030;-76
2023/10/24 11:51:59;;;;;;;3.72;2.42;;;12.90;99.90;;;;;;5034892;28;20045;-76
2023/10/24 11:54:26;;;;;;;5.43;2.33;;;12.80;99.90;;;;;;5035580;28;20068;-77
2023/10/24 11:56:56;;;;;;;6.15;2.58;;;12.70;99.90;;;;;;5035518;28;20036;-76
2023/10/24 11:59:21;;;;;;;2.58;1.67;;;12.60;99.90;;;;;;5035914;28;20022;-76
2023/10/24 12:01:47;;;;;;;5.40;2.97;;;12.60;99.90;;;;;;5036059;28;20096;-77
2023/10/24 12:04:13;;;;;;;3.65;2.25;;;12.50;99.90;;;;;;5034632;28;20087;-76
2023/10/24 12:06:39;;;;;;;4.82;2.30;;;12.40;99.90;;;;;;5036098;28;20044;-77
2023/10/24 12:09:06;;;;;;;3.13;2.00;;;12.30;99.90;;;;;;5035857;28;20030;-76
2023/10/24 12:11:35;;;;;;;4.05;2.03;;;12.30;99.90;;;;;;5035743;28;20444;-77
2023/10/24 12:14:01;;;;;;;1.48;1.33;;;12.20;99.90;;;;;;5036939;28;20025;-77
2023/10/24 12:16:28;;;;;;;4.90;2.33;;;12.20;99.90;;;;;;5034164;28;20017;-77
2023/10/24 12:18:54;;;;;;;1.80;0.70;;;12.20;99.90;;;;;;5035665;28;20028;-76
2023/10/24 12:21:19;;;;;;;2.95;1.20;;;12.10;99.90;;;;;;5035882;28;20029;-76
2023/10/24 12:23:45;;;;;;;2.65;1.38;;;12.10;99.90;;;;;;5035623;28;20029;-76
2023/10/24 12:26:10;;;;;;;2.97;1.10;;;12.00;99.90;;;;;;5034479;28;20396;-77
2023/10/24 12:28:42;;;;;;;3.40;1.27;;;12.00;99.90;;;;;;5034487;28;20055;-76
2023/10/24 12:31:08;;;;;;;2.95;0.95;;;12.00;99.90;;;;;;5035285;28;20477;-77
2023/10/24 12:33:33;;;;;;;1.42;0.93;;;11.90;99.90;;;;;;5036096;28;20018;-77
2023/10/24 12:36:02;;;;;;;2.70;1.25;;;12.00;99.90;;;;;;5035387;28;20026;-77
2023/10/24 12:38:29;;;;;;;2.15;1.42;;;12.00;99.90;;;;;;5035448;28;20068;-76
2023/10/24 12:40:54;;;;;;;2.75;1.25;;;12.00;99.90;;;;;;5034031;28;20121;-77
2023/10/24 12:43:20;;;;;;;2.35;1.13;;;12.00;99.90;;;;;;5034626;28;20049;-76
2023/10/24 12:45:46;;;;;;;3.85;1.10;;;12.00;99.90;;;;;;5034302;28;20032;-77